Goshen, Vermont
Current Conditions -  °F | °C
As of 5:55 PM on Wednesday 22 Oct 2014 (Local Time) from K6B0 Reporting Station
Overcast Overcast  
Wind Chill: 46°   Ceiling: 3300
Heat Index: 49°   Visibility: 10mi
Dew Point: 49°   Wind: 8mph
Humidity: 99%   Direction: 10°N
Pressure: 30.09"   Gusts: NA
Location:  43.8209°N, 73.0875°W
Report Text: K6B0 222155Z AUTO 01007KT 340V040 10SM SCT018 BKN033 OVC080 10/09 A3009 RMK AO2 T00960094
Loading
Personal Weather Stations






























Interactive Weather Map
Tropical Storm Tracking
New forecast layout! Learn more

10-Day Weather Forecast

Advertisements
Track Severe Weather on mobile